Air Resources Laboratory banner image
Air Resources Laboratory web site National Oceanic and Atmospheric Administration (NOAA)

ut metar


KBCE 170853Z AUTO 27005KT 10SM BKN110 12/11 A3034 RMK AO2 SLP171 T01220111
 53000=
KCDC 170853Z AUTO 00000KT 10SM CLR 16/13 A3018 RMK AO2 SLP156 T01560133 51004=
KCNY 170853Z AUTO 24003KT 10SM CLR 19/15 A3011 RMK AO2 SLP137 T01940150 51004 $=
KDTA 170855Z AUTO 07012KT 10SM CLR 18/11 A3013 RMK AO1=
KENV 170856Z AUTO 03005KT 5SM HZ CLR 24/07 A3007 RMK AO2 SLP131 T02390067 51005
 $=
KHIF 170858Z AUTO 07006KT 10SM FEW140 23/07 A3010 RMK AO2 SLP123 T02250067
 53005=
KHVE 170855Z AUTO 00000KT 10SM CLR 23/13 A3014 RMK AO2=
KLGU 170851Z AUTO 00000KT 10SM CLR 19/12 A3011 RMK AO2 SLP135 T01940122 51005=
KMLF 170852Z AUTO 26003KT 10SM CLR 17/14 A3014 RMK AO2 SLP140 T01720139 51004=
KOGD 170853Z AUTO VRB04KT 10SM CLR 24/07 A3008 RMK AO2 SLP113 T02440067 53004=
KPUC 170853Z AUTO 34004KT 10SM CLR 18/10 A3022 RMK AO2 SLP136 T01780100 58001=
KPVU 170856Z AUTO 21003KT 10SM CLR 20/12 A3013 RMK AO2 SLP141 T02000117 51010=
KSGU 170856Z AUTO 18005KT 10SM CLR 24/17 A2999 RMK AO2 SLP115 T02440172 53003=
KSLC 170854Z 15008KT 10SM FEW200 26/09 A3007 RMK AO2 SLP115 T02610094 53009=
KSLR 170850Z AUTO 22004KT 10SM CLR 28/18 A2993 RMK AO2 T02830180=
KVEL 170853Z AUTO 00000KT 10SM CLR 18/10 A3021 RMK AO2 SLP159 T01780100 51003=